Time;durP1;ratioP1;P1;durP2;ratioP2;P2;SDS_P1;SDS_P2;PMS_P1;PMS_P2;Temp;Humidity;BMP_temperature;BMP_pressure;BME280_temperature;BME280_humidity;BME280_pressure;Samples;Min_cycle;Max_cycle;Signal;HPM_P1;HPM_P2
2024/02/17 00:00:12;;;;;;;0.00;0.00;;;;;;;;;;5012392;28;20114;-91
2024/02/17 00:02:41;;;;;;;0.00;0.00;;;;;;;;;;5011301;28;20050;-91
2024/02/17 00:05:10;;;;;;;0.10;0.10;;;;;;;;;;4997054;28;20034;-90
2024/02/17 00:07:42;;;;;;;0.10;0.10;;;;;;;;;;5011896;28;20050;-91
2024/02/17 00:10:09;;;;;;;0.00;0.00;;;;;;;;;;5011117;28;20081;-91
2024/02/17 00:12:37;;;;;;;0.00;0.00;;;;;;;;;;5011788;28;20076;-90
2024/02/17 00:15:06;;;;;;;0.63;0.63;;;;;;;;;;5012549;28;20045;-91
2024/02/17 00:17:44;;;;;;;0.00;0.00;;;;;;;;;;5014615;28;20053;-91
2024/02/17 00:20:12;;;;;;;0.00;0.00;;;;;;;;;;5013263;28;20042;-91
2024/02/17 00:22:40;;;;;;;0.00;0.00;;;;;;;;;;5013203;28;20101;-89
2024/02/17 00:25:07;;;;;;;0.00;0.00;;;;;;;;;;5015417;28;20035;-90
2024/02/17 00:27:35;;;;;;;0.00;0.00;;;;;;;;;;5015788;28;20058;-91
2024/02/17 00:30:12;;;;;;;0.00;0.00;;;;;;;;;;5010346;28;20061;-91
2024/02/17 00:32:40;;;;;;;0.00;0.00;;;;;;;;;;5009868;28;20319;-92
2024/02/17 00:35:10;;;;;;;0.00;0.00;;;;;;;;;;5010590;28;20060;-92
2024/02/17 00:37:38;;;;;;;0.00;0.00;;;;;;;;;;5015657;28;20106;-89
2024/02/17 00:40:13;;;;;;;0.00;0.00;;;;;;;;;;5020035;28;20045;-91
2024/02/17 00:42:58;;;;;;;0.00;0.00;;;;;;;;;;5006104;28;20046;-91
2024/02/17 00:45:43;;;;;;;0.00;0.00;;;;;;;;;;5000731;28;20083;-91
2024/02/17 00:48:33;;;;;;;0.00;0.00;;;;;;;;;;5000947;28;20050;-90
2024/02/17 00:51:19;;;;;;;0.03;0.03;;;;;;;;;;4999946;28;20100;-90
2024/02/17 00:53:47;;;;;;;0.00;0.00;;;;;;;;;;4999790;28;20133;-91
2024/02/17 00:56:14;;;;;;;0.00;0.00;;;;;;;;;;4983075;28;20051;-92
2024/02/17 00:58:42;;;;;;;0.60;0.60;;;;;;;;;;4999661;28;20192;-90
2024/02/17 01:01:12;;;;;;;0.00;0.00;;;;;;;;;;4998965;28;20046;-91
2024/02/17 01:03:52;;;;;;;0.85;0.85;;;;;;;;;;4997996;28;20042;-92
2024/02/17 01:06:19;;;;;;;0.57;0.57;;;;;;;;;;4996014;28;20062;-92
2024/02/17 01:08:47;;;;;;;0.28;0.28;;;;;;;;;;4996365;28;20058;-92
2024/02/17 01:11:18;;;;;;;0.00;0.00;;;;;;;;;;4998651;28;20043;-92
2024/02/17 01:13:46;;;;;;;0.00;0.00;;;;;;;;;;4996515;28;20122;-92
2024/02/17 01:16:13;;;;;;;0.00;0.00;;;;;;;;;;5013642;28;20067;-91
2024/02/17 01:18:40;;;;;;;0.03;0.03;;;;;;;;;;4996837;28;20038;-92
2024/02/17 01:21:11;;;;;;;0.00;0.00;;;;;;;;;;4998465;28;20113;-91
2024/02/17 01:23:39;;;;;;;0.00;0.00;;;;;;;;;;4997744;28;20069;-90
2024/02/17 01:26:06;;;;;;;2.35;0.85;;;;;;;;;;4998853;28;20038;-92
2024/02/17 01:28:38;;;;;;;0.00;0.00;;;;;;;;;;4997371;28;20065;-92
2024/02/17 01:31:13;;;;;;;0.00;0.00;;;;;;;;;;4996160;28;20069;-92
2024/02/17 01:33:41;;;;;;;0.00;0.00;;;;;;;;;;4995194;28;20058;-92
2024/02/17 01:36:17;;;;;;;0.05;0.05;;;;;;;;;;4995652;28;20050;-92
2024/02/17 01:42:13;;;;;;;0.00;0.00;;;;;;;;;;4990382;28;20095;-92
2024/02/17 01:44:47;;;;;;;0.05;0.05;;;;;;;;;;4971579;28;20089;-91
2024/02/17 01:47:18;;;;;;;0.10;0.10;;;;;;;;;;5007264;28;20122;-91
2024/02/17 01:49:47;;;;;;;0.10;0.10;;;;;;;;;;5009861;28;20050;-91
2024/02/17 01:52:15;;;;;;;0.03;0.03;;;;;;;;;;5017590;28;20042;-92
2024/02/17 01:54:44;;;;;;;0.03;0.03;;;;;;;;;;5018451;28;20051;-91
2024/02/17 01:57:13;;;;;;;0.00;0.00;;;;;;;;;;5011161;28;20061;-91
2024/02/17 01:59:43;;;;;;;1.17;0.85;;;;;;;;;;5004183;28;20053;-92
2024/02/17 02:02:10;;;;;;;0.00;0.00;;;;;;;;;;5004241;28;20462;-91
2024/02/17 02:04:37;;;;;;;0.00;0.00;;;;;;;;;;5003868;28;20246;-90
2024/02/17 02:07:06;;;;;;;0.15;0.15;;;;;;;;;;5005859;28;20097;-91
2024/02/17 02:09:35;;;;;;;0.00;0.00;;;;;;;;;;5004953;28;20086;-93
2024/02/17 02:12:04;;;;;;;0.00;0.00;;;;;;;;;;5007102;28;20117;-91
2024/02/17 02:14:32;;;;;;;0.00;0.00;;;;;;;;;;5017994;28;20038;-90
2024/02/17 02:17:01;;;;;;;0.47;0.47;;;;;;;;;;5017447;28;20042;-93
2024/02/17 02:19:29;;;;;;;0.00;0.00;;;;;;;;;;5007056;28;20078;-91
2024/02/17 02:22:00;;;;;;;0.20;0.20;;;;;;;;;;5010340;28;20120;-92
2024/02/17 02:24:31;;;;;;;0.00;0.00;;;;;;;;;;5010843;28;20081;-92
2024/02/17 02:26:59;;;;;;;0.00;0.00;;;;;;;;;;5008958;28;20046;-91
2024/02/17 02:29:27;;;;;;;0.65;0.30;;;;;;;;;;5008463;28;20106;-92
2024/02/17 02:31:57;;;;;;;0.00;0.00;;;;;;;;;;5003797;28;20050;-91
2024/02/17 02:34:26;;;;;;;0.28;0.28;;;;;;;;;;5005398;28;20486;-92
2024/02/17 02:36:54;;;;;;;0.20;0.20;;;;;;;;;;5008775;28;20064;-92
2024/02/17 02:39:21;;;;;;;0.00;0.00;;;;;;;;;;5003005;28;20339;-92
2024/02/17 02:41:49;;;;;;;0.10;0.10;;;;;;;;;;5004600;28;20069;-91
2024/02/17 02:47:47;;;;;;;;;;;;;;;;;;5003537;28;20098;-89
2024/02/17 02:50:19;;;;;;;0.00;0.00;;;;;;;;;;4985440;28;19922;-89
2024/02/17 02:52:48;;;;;;;0.00;0.00;;;;;;;;;;5001346;28;20087;-89
2024/02/17 02:55:25;;;;;;;0.00;0.00;;;;;;;;;;5002108;28;20054;-89
2024/02/17 02:58:06;;;;;;;0.05;0.05;;;;;;;;;;5001292;28;20054;-90
2024/02/17 03:00:37;;;;;;;0.68;0.65;;;;;;;;;;5011540;28;20061;-90
2024/02/17 03:03:05;;;;;;;0.00;0.00;;;;;;;;;;5002940;28;20046;-90
2024/02/17 03:05:36;;;;;;;0.00;0.00;;;;;;;;;;5003315;28;20058;-90
2024/02/17 03:08:04;;;;;;;0.00;0.00;;;;;;;;;;5002554;28;20336;-90
2024/02/17 03:10:32;;;;;;;0.08;0.08;;;;;;;;;;5002171;28;20046;-90
2024/02/17 03:13:04;;;;;;;0.03;0.03;;;;;;;;;;5004786;28;20074;-91
2024/02/17 03:15:49;;;;;;;0.00;0.00;;;;;;;;;;5003232;28;20046;-90
2024/02/17 03:18:23;;;;;;;0.00;0.00;;;;;;;;;;5002691;28;20113;-90
2024/02/17 03:20:51;;;;;;;0.10;0.10;;;;;;;;;;5003172;28;20105;-90
2024/02/17 03:23:22;;;;;;;0.08;0.08;;;;;;;;;;5003069;28;20089;-90
2024/02/17 03:25:50;;;;;;;0.25;0.22;;;;;;;;;;5001895;28;20069;-90
2024/02/17 03:28:18;;;;;;;0.00;0.00;;;;;;;;;;5003431;28;20401;-90
2024/02/17 03:30:46;;;;;;;0.00;0.00;;;;;;;;;;5001516;28;20075;-91
2024/02/17 03:33:15;;;;;;;0.10;0.10;;;;;;;;;;4985392;28;20050;-90
2024/02/17 03:35:43;;;;;;;0.10;0.10;;;;;;;;;;4999005;28;20051;-90
2024/02/17 03:38:11;;;;;;;0.00;0.00;;;;;;;;;;4999478;28;20054;-90
2024/02/17 03:40:45;;;;;;;0.00;0.00;;;;;;;;;;5000026;28;20046;-90
2024/02/17 03:43:14;;;;;;;0.10;0.10;;;;;;;;;;4991064;28;20346;-90
2024/02/17 03:45:42;;;;;;;0.10;0.10;;;;;;;;;;5002540;28;20140;-90
2024/02/17 03:48:11;;;;;;;0.00;0.00;;;;;;;;;;4985361;28;20050;-90
2024/02/17 03:50:39;;;;;;;0.00;0.00;;;;;;;;;;4985057;28;20050;-90
2024/02/17 03:53:09;;;;;;;0.08;0.08;;;;;;;;;;5000307;28;20053;-90
2024/02/17 03:55:37;;;;;;;0.00;0.00;;;;;;;;;;5002295;28;20108;-90
2024/02/17 03:58:05;;;;;;;0.00;0.00;;;;;;;;;;5002603;28;20050;-90
2024/02/17 04:00:37;;;;;;;0.00;0.00;;;;;;;;;;5008054;28;20054;-90
2024/02/17 04:03:13;;;;;;;0.13;0.05;;;;;;;;;;5012928;28;20054;-91
2024/02/17 04:05:57;;;;;;;0.00;0.00;;;;;;;;;;5011799;28;20085;-90
2024/02/17 04:08:36;;;;;;;0.00;0.00;;;;;;;;;;5013328;28;20050;-90
2024/02/17 04:11:07;;;;;;;0.08;0.08;;;;;;;;;;5006552;28;20051;-90
2024/02/17 04:13:35;;;;;;;0.00;0.00;;;;;;;;;;5000859;28;20295;-90
2024/02/17 04:16:03;;;;;;;0.08;0.08;;;;;;;;;;5001153;28;20088;-90
2024/02/17 04:18:34;;;;;;;0.05;0.05;;;;;;;;;;5002045;28;20331;-91
2024/02/17 04:21:03;;;;;;;0.00;0.00;;;;;;;;;;5003630;28;20054;-90
2024/02/17 04:23:37;;;;;;;0.10;0.10;;;;;;;;;;5014991;28;20038;-90
2024/02/17 04:26:06;;;;;;;0.00;0.00;;;;;;;;;;5010473;28;20156;-90
2024/02/17 04:28:35;;;;;;;0.00;0.00;;;;;;;;;;5003695;28;20121;-90
2024/02/17 04:31:03;;;;;;;0.00;0.00;;;;;;;;;;5004455;28;20133;-90
2024/02/17 04:33:38;;;;;;;0.00;0.00;;;;;;;;;;5003409;28;20065;-91
2024/02/17 04:36:06;;;;;;;0.00;0.00;;;;;;;;;;4991003;28;20065;-90
2024/02/17 04:38:36;;;;;;;0.00;0.00;;;;;;;;;;5003914;28;20086;-90
2024/02/17 04:41:05;;;;;;;0.00;0.00;;;;;;;;;;5001312;28;20082;-89
2024/02/17 04:43:33;;;;;;;0.00;0.00;;;;;;;;;;5004278;28;20054;-90
2024/02/17 04:46:01;;;;;;;0.00;0.00;;;;;;;;;;5003431;28;20046;-91
2024/02/17 04:48:29;;;;;;;0.13;0.13;;;;;;;;;;5004932;28;20105;-91
2024/02/17 04:50:59;;;;;;;0.00;0.00;;;;;;;;;;4990324;28;20138;-90
2024/02/17 04:53:28;;;;;;;0.00;0.00;;;;;;;;;;5009136;28;20046;-90
2024/02/17 04:55:56;;;;;;;0.00;0.00;;;;;;;;;;5014692;28;20042;-91
2024/02/17 04:58:26;;;;;;;0.00;0.00;;;;;;;;;;5015084;28;20058;-90
2024/02/17 05:00:56;;;;;;;0.10;0.10;;;;;;;;;;5014371;28;20042;-90
2024/02/17 05:03:26;;;;;;;0.00;0.00;;;;;;;;;;4998695;28;20065;-90
2024/02/17 05:05:55;;;;;;;0.00;0.00;;;;;;;;;;5014502;28;20057;-90
2024/02/17 05:08:25;;;;;;;0.05;0.05;;;;;;;;;;5003977;28;20338;-90
2024/02/17 05:10:58;;;;;;;0.05;0.05;;;;;;;;;;5007421;28;20254;-90
2024/02/17 05:13:26;;;;;;;0.00;0.00;;;;;;;;;;4987635;28;20069;-90
2024/02/17 05:15:55;;;;;;;0.00;0.00;;;;;;;;;;5002839;28;20081;-89
2024/02/17 05:18:28;;;;;;;0.00;0.00;;;;;;;;;;5004008;28;20230;-90
2024/02/17 05:20:55;;;;;;;0.00;0.00;;;;;;;;;;5015797;28;20062;-91
2024/02/17 05:23:24;;;;;;;0.10;0.10;;;;;;;;;;5017846;28;20042;-91
2024/02/17 05:25:54;;;;;;;0.10;0.10;;;;;;;;;;5007498;28;20043;-89
2024/02/17 05:28:35;;;;;;;0.08;0.08;;;;;;;;;;5006610;28;20042;-89
2024/02/17 05:31:03;;;;;;;0.00;0.00;;;;;;;;;;5004652;28;20058;-90
2024/02/17 05:33:31;;;;;;;0.00;0.00;;;;;;;;;;5006984;28;20092;-90
2024/02/17 05:36:01;;;;;;;0.00;0.00;;;;;;;;;;5007525;28;20234;-89
2024/02/17 05:38:29;;;;;;;0.00;0.00;;;;;;;;;;5017277;28;20038;-90
2024/02/17 05:40:56;;;;;;;0.10;0.10;;;;;;;;;;5018529;28;20050;-90
2024/02/17 05:43:28;;;;;;;0.10;0.10;;;;;;;;;;5001438;28;20295;-90
2024/02/17 05:45:56;;;;;;;0.00;0.00;;;;;;;;;;5014968;28;20050;-91
2024/02/17 05:48:24;;;;;;;0.20;0.00;;;;;;;;;;5005163;28;20134;-89
2024/02/17 05:50:53;;;;;;;0.00;0.00;;;;;;;;;;5005732;28;20493;-91
2024/02/17 05:53:21;;;;;;;0.00;0.00;;;;;;;;;;4989046;28;20190;-89
2024/02/17 05:55:51;;;;;;;0.00;0.00;;;;;;;;;;5005309;28;20149;-90
2024/02/17 05:58:21;;;;;;;0.00;0.00;;;;;;;;;;5008394;28;20117;-90
2024/02/17 06:01:02;;;;;;;0.00;0.00;;;;;;;;;;5004534;28;20054;-90
2024/02/17 06:03:38;;;;;;;0.00;0.00;;;;;;;;;;5004157;28;20050;-90
2024/02/17 06:06:10;;;;;;;0.00;0.00;;;;;;;;;;5005399;28;20077;-90
2024/02/17 06:08:39;;;;;;;0.00;0.00;;;;;;;;;;5004649;28;20503;-89
2024/02/17 06:11:20;;;;;;;0.00;0.00;;;;;;;;;;4989011;28;20054;-89
2024/02/17 06:13:48;;;;;;;0.05;0.05;;;;;;;;;;5003584;28;20113;-91
2024/02/17 06:16:18;;;;;;;0.00;0.00;;;;;;;;;;5005340;28;20116;-91
2024/02/17 06:21:35;;;;;;;0.00;0.00;;;;;;;;;;5008491;28;20057;-90
2024/02/17 06:24:05;;;;;;;0.00;0.00;;;;;;;;;;5005138;28;20058;-90
2024/02/17 06:26:35;;;;;;;0.10;0.10;;;;;;;;;;5005030;28;20051;-89
2024/02/17 06:29:09;;;;;;;0.05;0.05;;;;;;;;;;5005160;28;20081;-90
2024/02/17 06:31:39;;;;;;;0.00;0.00;;;;;;;;;;5006806;28;20415;-90
2024/02/17 06:34:09;;;;;;;0.00;0.00;;;;;;;;;;5005937;28;20116;-90
2024/02/17 06:36:42;;;;;;;0.00;0.00;;;;;;;;;;5003384;28;20080;-89
2024/02/17 06:39:13;;;;;;;0.00;0.00;;;;;;;;;;5003630;28;20172;-90
2024/02/17 06:41:41;;;;;;;0.00;0.00;;;;;;;;;;5004993;28;20097;-90
2024/02/17 06:44:09;;;;;;;0.00;0.00;;;;;;;;;;5002900;28;20064;-90
2024/02/17 06:46:44;;;;;;;0.00;0.00;;;;;;;;;;5004384;28;20088;-90
2024/02/17 06:49:12;;;;;;;0.00;0.00;;;;;;;;;;5004660;28;20118;-90
2024/02/17 06:51:44;;;;;;;0.00;0.00;;;;;;;;;;5004083;28;20054;-90
2024/02/17 06:54:12;;;;;;;0.08;0.08;;;;;;;;;;5004456;28;20081;-90
2024/02/17 06:56:47;;;;;;;0.00;0.00;;;;;;;;;;5004645;28;20064;-90
2024/02/17 06:59:16;;;;;;;0.03;0.03;;;;;;;;;;5004393;28;20054;-90
2024/02/17 07:01:44;;;;;;;0.10;0.10;;;;;;;;;;5003923;28;20122;-90
2024/02/17 07:04:11;;;;;;;0.00;0.00;;;;;;;;;;5003073;28;20054;-90
2024/02/17 07:06:42;;;;;;;0.00;0.00;;;;;;;;;;5004792;28;20070;-90
2024/02/17 07:09:16;;;;;;;0.00;0.00;;;;;;;;;;5010455;28;20054;-91
2024/02/17 07:11:44;;;;;;;0.00;0.00;;;;;;;;;;5003984;28;20064;-90
2024/02/17 07:14:14;;;;;;;0.10;0.10;;;;;;;;;;5003112;28;20062;-89
2024/02/17 07:16:43;;;;;;;0.00;0.00;;;;;;;;;;5004365;28;20331;-90
2024/02/17 07:19:12;;;;;;;0.05;0.05;;;;;;;;;;5003070;28;20054;-90
2024/02/17 07:21:44;;;;;;;0.00;0.00;;;;;;;;;;5002348;28;20054;-89
2024/02/17 07:24:15;;;;;;;0.00;0.00;;;;;;;;;;4987524;28;20078;-89
2024/02/17 07:26:43;;;;;;;0.00;0.00;;;;;;;;;;5003173;28;20382;-91
2024/02/17 07:29:12;;;;;;;0.00;0.00;;;;;;;;;;5002620;28;20153;-90
2024/02/17 07:31:45;;;;;;;0.10;0.10;;;;;;;;;;4988654;28;20046;-91
2024/02/17 07:34:15;;;;;;;0.00;0.00;;;;;;;;;;5004437;28;20054;-90
2024/02/17 07:36:46;;;;;;;0.00;0.00;;;;;;;;;;5005713;28;20084;-89
2024/02/17 07:39:14;;;;;;;0.10;0.10;;;;;;;;;;5010285;28;20046;-90
2024/02/17 07:41:43;;;;;;;0.00;0.00;;;;;;;;;;5007142;28;20054;-90
2024/02/17 07:44:20;;;;;;;0.00;0.00;;;;;;;;;;5005297;28;20058;-91
2024/02/17 07:46:52;;;;;;;0.00;0.00;;;;;;;;;;5004962;28;20054;-91
2024/02/17 07:49:20;;;;;;;0.00;0.00;;;;;;;;;;4987877;28;20058;-91
2024/02/17 07:51:48;;;;;;;0.00;0.00;;;;;;;;;;5004131;28;20050;-91
2024/02/17 07:54:24;;;;;;;0.00;0.00;;;;;;;;;;5006950;28;20061;-90
2024/02/17 07:56:58;;;;;;;0.00;0.00;;;;;;;;;;5007953;28;20060;-90
2024/02/17 07:59:28;;;;;;;0.00;0.00;;;;;;;;;;5005054;28;20038;-90
2024/02/17 08:01:57;;;;;;;0.10;0.10;;;;;;;;;;4995071;28;20034;-89
2024/02/17 08:04:27;;;;;;;0.00;0.00;;;;;;;;;;5011683;28;20046;-91
2024/02/17 08:07:01;;;;;;;0.00;0.00;;;;;;;;;;4996978;28;20055;-89
2024/02/17 08:09:31;;;;;;;0.05;0.05;;;;;;;;;;5013015;28;20038;-90
2024/02/17 08:12:05;;;;;;;0.00;0.00;;;;;;;;;;5013835;28;20050;-89
2024/02/17 08:14:33;;;;;;;0.00;0.00;;;;;;;;;;5014028;28;20179;-91
2024/02/17 08:17:04;;;;;;;0.00;0.00;;;;;;;;;;5013705;28;20038;-91
2024/02/17 08:19:32;;;;;;;0.00;0.00;;;;;;;;;;5013261;28;20098;-90
2024/02/17 08:22:01;;;;;;;0.00;0.00;;;;;;;;;;5013012;28;20115;-91
2024/02/17 08:24:30;;;;;;;0.00;0.00;;;;;;;;;;4997318;28;20039;-90
2024/02/17 08:26:59;;;;;;;0.00;0.00;;;;;;;;;;5007974;28;20045;-89
2024/02/17 08:29:27;;;;;;;0.08;0.08;;;;;;;;;;5012701;28;20045;-90
2024/02/17 08:32:07;;;;;;;0.08;0.08;;;;;;;;;;5013566;28;20135;-89
2024/02/17 08:34:37;;;;;;;0.00;0.00;;;;;;;;;;5013063;28;20039;-90
2024/02/17 08:37:05;;;;;;;0.00;0.00;;;;;;;;;;5013306;28;20126;-90
2024/02/17 08:39:35;;;;;;;0.00;0.00;;;;;;;;;;5012649;28;20077;-90
2024/02/17 08:42:10;;;;;;;0.00;0.00;;;;;;;;;;5012698;28;20069;-90
2024/02/17 08:44:43;;;;;;;0.00;0.00;;;;;;;;;;5012097;28;20054;-90
2024/02/17 08:47:15;;;;;;;0.05;0.05;;;;;;;;;;5013613;28;20054;-90
2024/02/17 08:49:44;;;;;;;0.03;0.03;;;;;;;;;;5011698;28;20085;-90
2024/02/17 08:52:13;;;;;;;0.00;0.00;;;;;;;;;;5002493;28;20065;-89
2024/02/17 08:54:44;;;;;;;0.10;0.10;;;;;;;;;;5004660;28;20077;-90
2024/02/17 08:57:16;;;;;;;0.00;0.00;;;;;;;;;;5003784;28;20074;-90
2024/02/17 08:59:44;;;;;;;0.10;0.10;;;;;;;;;;5005109;28;20433;-90
2024/02/17 09:02:26;;;;;;;0.10;0.10;;;;;;;;;;5003306;28;20120;-90
2024/02/17 09:04:56;;;;;;;0.10;0.10;;;;;;;;;;5001502;28;20065;-90
2024/02/17 09:07:27;;;;;;;0.00;0.00;;;;;;;;;;5003215;28;20057;-90
2024/02/17 09:09:57;;;;;;;0.00;0.00;;;;;;;;;;5004534;28;20054;-91
2024/02/17 09:12:29;;;;;;;0.10;0.10;;;;;;;;;;5005183;28;20136;-90
2024/02/17 09:15:12;;;;;;;0.10;0.10;;;;;;;;;;5014213;28;20119;-88
2024/02/17 09:17:40;;;;;;;0.03;0.03;;;;;;;;;;5015381;28;20100;-88
2024/02/17 09:20:10;;;;;;;0.10;0.10;;;;;;;;;;5005015;28;20117;-90
2024/02/17 09:22:38;;;;;;;0.05;0.05;;;;;;;;;;4999004;28;20258;-90
2024/02/17 09:25:19;;;;;;;0.10;0.10;;;;;;;;;;4998164;28;20152;-90
2024/02/17 09:27:47;;;;;;;0.05;0.05;;;;;;;;;;5014333;28;20050;-91
2024/02/17 09:30:15;;;;;;;0.00;0.00;;;;;;;;;;5016060;28;20093;-90
2024/02/17 09:32:49;;;;;;;0.00;0.00;;;;;;;;;;5005791;28;20161;-91
2024/02/17 09:35:17;;;;;;;0.00;0.00;;;;;;;;;;4999992;28;20061;-91
2024/02/17 09:37:47;;;;;;;0.00;0.00;;;;;;;;;;5000240;28;20124;-90
2024/02/17 09:40:21;;;;;;;0.03;0.03;;;;;;;;;;4998971;28;20058;-91
2024/02/17 09:42:50;;;;;;;0.00;0.00;;;;;;;;;;4997974;28;20114;-89
2024/02/17 09:45:18;;;;;;;0.00;0.00;;;;;;;;;;4999702;28;20066;-91
2024/02/17 09:47:48;;;;;;;0.00;0.00;;;;;;;;;;4998120;28;20066;-89
2024/02/17 09:50:20;;;;;;;0.00;0.00;;;;;;;;;;4999229;28;20050;-91
2024/02/17 09:52:49;;;;;;;0.10;0.10;;;;;;;;;;5001494;28;20051;-91
2024/02/17 09:55:16;;;;;;;0.03;0.03;;;;;;;;;;5008692;28;20050;-89
2024/02/17 09:57:50;;;;;;;0.00;0.00;;;;;;;;;;5003659;28;20101;-90
2024/02/17 10:00:21;;;;;;;0.10;0.10;;;;;;;;;;4998171;28;20050;-90
2024/02/17 10:02:51;;;;;;;0.10;0.10;;;;;;;;;;4999132;28;20149;-91
2024/02/17 10:05:24;;;;;;;0.08;0.08;;;;;;;;;;5000895;28;20141;-89
2024/02/17 10:15:32;;;;;;;0.10;0.10;;;;;;;;;;4982571;28;20054;-90
2024/02/17 10:18:03;;;;;;;0.00;0.00;;;;;;;;;;4973423;28;20119;-90
2024/02/17 10:20:31;;;;;;;0.00;0.00;;;;;;;;;;4990822;28;20046;-90
2024/02/17 10:22:58;;;;;;;0.03;0.03;;;;;;;;;;4995521;28;20240;-89
2024/02/17 10:25:28;;;;;;;0.00;0.00;;;;;;;;;;4995043;28;20067;-89
2024/02/17 10:28:01;;;;;;;0.00;0.00;;;;;;;;;;4994664;28;20102;-90
2024/02/17 10:30:32;;;;;;;0.00;0.00;;;;;;;;;;4995094;28;20054;-89
2024/02/17 10:33:24;;;;;;;0.00;0.00;;;;;;;;;;4995777;28;20102;-90
2024/02/17 10:35:54;;;;;;;0.10;0.10;;;;;;;;;;4994583;28;20043;-91
2024/02/17 10:38:21;;;;;;;0.00;0.00;;;;;;;;;;4982845;28;20071;-90
2024/02/17 10:40:51;;;;;;;0.00;0.00;;;;;;;;;;4982698;28;20069;-90
2024/02/17 10:43:21;;;;;;;0.05;0.05;;;;;;;;;;4979345;28;20054;-90
2024/02/17 10:45:51;;;;;;;0.00;0.00;;;;;;;;;;4979919;28;20058;-90
2024/02/17 10:48:21;;;;;;;0.00;0.00;;;;;;;;;;4979886;28;20051;-90
2024/02/17 10:51:02;;;;;;;0.00;0.00;;;;;;;;;;4978221;28;20039;-89
2024/02/17 10:53:29;;;;;;;0.00;0.00;;;;;;;;;;4980352;28;20482;-91
2024/02/17 10:55:59;;;;;;;0.03;0.03;;;;;;;;;;4978001;28;20462;-90
2024/02/17 10:58:35;;;;;;;0.00;0.00;;;;;;;;;;4978517;28;20110;-90
2024/02/17 11:01:04;;;;;;;0.00;0.00;;;;;;;;;;4977795;28;20051;-89
2024/02/17 11:03:41;;;;;;;0.00;0.00;;;;;;;;;;4991163;28;20050;-91
2024/02/17 11:06:12;;;;;;;0.03;0.03;;;;;;;;;;4991815;28;20415;-90
2024/02/17 11:08:41;;;;;;;0.00;0.00;;;;;;;;;;4979832;28;20055;-91
2024/02/17 11:11:22;;;;;;;0.00;0.00;;;;;;;;;;4979893;28;20070;-90
2024/02/17 11:13:51;;;;;;;0.00;0.00;;;;;;;;;;4981064;28;20439;-90
2024/02/17 11:16:19;;;;;;;0.00;0.00;;;;;;;;;;4969995;28;20082;-89
2024/02/17 11:18:53;;;;;;;0.10;0.10;;;;;;;;;;4994674;28;20042;-89
2024/02/17 11:21:30;;;;;;;0.00;0.00;;;;;;;;;;4986677;28;20347;-89
2024/02/17 11:24:00;;;;;;;0.00;0.00;;;;;;;;;;4981799;28;20054;-90
2024/02/17 11:26:37;;;;;;;0.00;0.00;;;;;;;;;;4967158;28;20109;-90
2024/02/17 11:29:26;;;;;;;0.00;0.00;;;;;;;;;;4984167;28;20089;-90
2024/02/17 11:31:58;;;;;;;0.00;0.00;;;;;;;;;;4976973;28;20046;-91
2024/02/17 11:34:29;;;;;;;0.00;0.00;;;;;;;;;;4981949;28;20066;-90
2024/02/17 11:36:58;;;;;;;0.00;0.00;;;;;;;;;;4980643;28;20054;-90
2024/02/17 11:39:25;;;;;;;0.00;0.00;;;;;;;;;;4980402;28;20463;-90
2024/02/17 11:42:01;;;;;;;0.00;0.00;;;;;;;;;;4979726;28;20399;-90
2024/02/17 11:44:32;;;;;;;0.00;0.00;;;;;;;;;;4978100;28;20455;-90
2024/02/17 11:47:04;;;;;;;0.00;0.00;;;;;;;;;;4990622;28;20405;-91
2024/02/17 11:49:33;;;;;;;0.00;0.00;;;;;;;;;;4990892;28;20046;-90
2024/02/17 11:52:03;;;;;;;0.00;0.00;;;;;;;;;;4978110;28;20450;-90
2024/02/17 11:54:34;;;;;;;0.00;0.00;;;;;;;;;;4961418;28;20424;-91
2024/02/17 11:57:08;;;;;;;0.00;0.00;;;;;;;;;;4979696;28;20224;-91
2024/02/17 11:59:36;;;;;;;0.00;0.00;;;;;;;;;;4980872;28;20793;-90
2024/02/17 12:02:39;;;;;;;;;;;;;;;;;;;;;
2024/02/17 14:03:08;;;;;;;0.00;0.00;;;;;;;;;;4982791;28;20127;-89
2024/02/17 14:05:35;;;;;;;0.00;0.00;;;;;;;;;;4975077;28;20074;-89
2024/02/17 14:08:06;;;;;;;0.00;0.00;;;;;;;;;;4974244;28;20114;-89
2024/02/17 14:10:34;;;;;;;0.00;0.00;;;;;;;;;;4977395;28;20038;-89
2024/02/17 14:13:01;;;;;;;0.00;0.00;;;;;;;;;;4967015;28;20057;-89
2024/02/17 14:15:31;;;;;;;0.00;0.00;;;;;;;;;;4966276;28;20090;-90
2024/02/17 14:18:01;;;;;;;0.00;0.00;;;;;;;;;;4972923;28;20104;-89
2024/02/17 14:20:42;;;;;;;0.03;0.03;;;;;;;;;;4980044;28;20082;-89
2024/02/17 14:23:20;;;;;;;0.00;0.00;;;;;;;;;;4980218;28;20054;-89
2024/02/17 14:26:21;;;;;;;0.00;0.00;;;;;;;;;;4979689;28;20050;-90
2024/02/17 14:29:02;;;;;;;0.00;0.00;;;;;;;;;;4980687;28;20035;-88
2024/02/17 14:31:31;;;;;;;0.00;0.00;;;;;;;;;;4977608;28;20062;-88
2024/02/17 14:33:59;;;;;;;0.00;0.00;;;;;;;;;;4977618;28;20045;-88
2024/02/17 14:36:29;;;;;;;0.00;0.00;;;;;;;;;;4972072;28;20058;-90
2024/02/17 14:39:05;;;;;;;0.00;0.00;;;;;;;;;;4987062;28;20059;-89
2024/02/17 14:41:35;;;;;;;0.08;0.08;;;;;;;;;;4963799;28;20299;-90
2024/02/17 14:44:03;;;;;;;0.00;0.00;;;;;;;;;;4964965;28;20450;-90
2024/02/17 14:46:34;;;;;;;0.00;0.00;;;;;;;;;;4964615;28;20424;-90
2024/02/17 14:49:04;;;;;;;0.00;0.00;;;;;;;;;;4965583;28;20054;-89
2024/02/17 14:51:35;;;;;;;0.00;0.00;;;;;;;;;;4964819;28;20055;-89
2024/02/17 14:54:03;;;;;;;0.20;0.20;;;;;;;;;;4966933;28;20390;-88
2024/02/17 14:56:32;;;;;;;0.00;0.00;;;;;;;;;;4967666;28;20059;-88
2024/02/17 14:59:03;;;;;;;0.10;0.10;;;;;;;;;;4985601;28;20066;-88
2024/02/17 15:01:34;;;;;;;0.00;0.00;;;;;;;;;;4964427;28;20062;-89
2024/02/17 15:04:02;;;;;;;0.00;0.00;;;;;;;;;;4980473;28;20078;-89
2024/02/17 15:06:30;;;;;;;0.00;0.00;;;;;;;;;;4963238;28;20311;-89
2024/02/17 15:09:00;;;;;;;0.00;0.00;;;;;;;;;;4964533;28;20145;-89
2024/02/17 15:11:29;;;;;;;0.00;0.00;;;;;;;;;;4963593;28;20210;-88
2024/02/17 15:13:58;;;;;;;0.00;0.00;;;;;;;;;;4964023;28;20050;-89
2024/02/17 15:16:26;;;;;;;0.00;0.00;;;;;;;;;;4962283;28;20067;-90
2024/02/17 15:18:54;;;;;;;0.08;0.08;;;;;;;;;;4962363;28;20058;-89
2024/02/17 15:21:28;;;;;;;0.10;0.10;;;;;;;;;;4963363;28;20085;-89
2024/02/17 15:24:02;;;;;;;0.00;0.00;;;;;;;;;;4964067;28;20165;-88
2024/02/17 15:26:36;;;;;;;0.10;0.10;;;;;;;;;;4964977;28;20055;-91
2024/02/17 15:29:07;;;;;;;0.00;0.00;;;;;;;;;;4972149;28;20231;-89
2024/02/17 15:31:44;;;;;;;0.00;0.00;;;;;;;;;;4969680;28;20064;-91
2024/02/17 15:34:30;;;;;;;0.10;0.10;;;;;;;;;;4971318;28;20039;-89
2024/02/17 15:37:13;;;;;;;0.00;0.00;;;;;;;;;;4973994;28;20102;-90
2024/02/17 15:40:00;;;;;;;0.00;0.00;;;;;;;;;;4984255;28;20051;-90
2024/02/17 15:42:35;;;;;;;0.00;0.00;;;;;;;;;;4967394;28;20395;-89
2024/02/17 15:45:06;;;;;;;0.00;0.00;;;;;;;;;;4965883;28;20367;-89
2024/02/17 15:47:55;;;;;;;0.00;0.00;;;;;;;;;;4963820;28;20124;-90
2024/02/17 15:50:30;;;;;;;0.10;0.10;;;;;;;;;;4964737;28;20054;-88
2024/02/17 15:53:13;;;;;;;0.10;0.10;;;;;;;;;;4966588;28;20094;-89
2024/02/17 15:55:51;;;;;;;0.00;0.00;;;;;;;;;;4966770;28;20051;-90
2024/02/17 15:58:27;;;;;;;0.10;0.10;;;;;;;;;;4967984;28;20065;-89
2024/02/17 16:01:00;;;;;;;0.00;0.00;;;;;;;;;;4965267;28;20066;-89
2024/02/17 16:03:32;;;;;;;0.00;0.00;;;;;;;;;;4966686;28;20054;-89
2024/02/17 16:06:06;;;;;;;0.00;0.00;;;;;;;;;;4964692;28;20363;-89
2024/02/17 16:08:40;;;;;;;0.00;0.00;;;;;;;;;;4965186;28;20054;-89
2024/02/17 16:11:19;;;;;;;0.10;0.10;;;;;;;;;;4965811;28;20096;-90
2024/02/17 16:13:52;;;;;;;0.00;0.00;;;;;;;;;;4967097;28;20062;-89
2024/02/17 16:16:45;;;;;;;0.10;0.10;;;;;;;;;;4968613;28;20059;-90
2024/02/17 16:19:26;;;;;;;0.10;0.10;;;;;;;;;;4973257;28;20055;-89
2024/02/17 16:21:55;;;;;;;0.00;0.00;;;;;;;;;;4963855;28;20085;-90
2024/02/17 16:24:31;;;;;;;0.00;0.00;;;;;;;;;;4965558;28;20069;-89
2024/02/17 16:27:01;;;;;;;0.00;0.00;;;;;;;;;;4965610;28;20416;-88
2024/02/17 16:29:31;;;;;;;0.10;0.10;;;;;;;;;;4966064;28;20145;-89
2024/02/17 16:32:01;;;;;;;0.10;0.10;;;;;;;;;;4976624;28;20077;-88
2024/02/17 16:34:30;;;;;;;0.08;0.08;;;;;;;;;;4971380;28;20062;-89
2024/02/17 16:37:04;;;;;;;0.00;0.00;;;;;;;;;;4970556;28;20074;-90
2024/02/17 16:39:48;;;;;;;0.00;0.00;;;;;;;;;;4966906;28;20082;-89
2024/02/17 16:42:26;;;;;;;0.10;0.10;;;;;;;;;;4973331;28;20059;-89
2024/02/17 16:45:07;;;;;;;0.10;0.10;;;;;;;;;;4978939;28;20050;-90
2024/02/17 16:47:39;;;;;;;0.10;0.10;;;;;;;;;;4975294;28;20189;-90
2024/02/17 16:50:25;;;;;;;0.10;0.10;;;;;;;;;;4968565;28;20090;-88
2024/02/17 16:53:04;;;;;;;0.10;0.10;;;;;;;;;;4973579;28;20059;-90
2024/02/17 16:55:35;;;;;;;0.10;0.10;;;;;;;;;;4976981;28;20051;-90
2024/02/17 16:58:12;;;;;;;0.00;0.00;;;;;;;;;;4975026;28;20063;-90
2024/02/17 17:00:43;;;;;;;0.10;0.10;;;;;;;;;;4963806;28;20205;-90
2024/02/17 17:03:12;;;;;;;0.10;0.10;;;;;;;;;;4964005;28;20261;-90
2024/02/17 17:05:50;;;;;;;0.10;0.10;;;;;;;;;;4965936;28;20331;-91
2024/02/17 17:08:35;;;;;;;0.10;0.10;;;;;;;;;;4966713;28;20072;-89
2024/02/17 17:11:26;;;;;;;0.10;0.10;;;;;;;;;;4980307;28;20236;-89
2024/02/17 17:14:23;;;;;;;0.05;0.05;;;;;;;;;;4969663;28;20395;-89
2024/02/17 17:17:11;;;;;;;0.10;0.10;;;;;;;;;;4985595;28;20373;-89
2024/02/17 17:19:57;;;;;;;0.00;0.00;;;;;;;;;;4984002;28;20114;-89
2024/02/17 17:22:44;;;;;;;0.10;0.10;;;;;;;;;;4972155;28;20043;-90
2024/02/17 17:25:25;;;;;;;0.10;0.10;;;;;;;;;;4983300;28;20067;-88